sensor_id;sensor_type;location;lat;lon;timestamp;pressure;altitude;pressure_sealevel;temperature;humidity
48364;BME280;34170;54.364;18.582;2023-02-18T00:01:19;98405.16;;;6.76;100.00
48364;BME280;34170;54.364;18.582;2023-02-18T00:03:47;98400.00;;;6.82;99.80
48364;BME280;34170;54.364;18.582;2023-02-18T00:06:17;98382.97;;;6.83;97.82
48364;BME280;34170;54.364;18.582;2023-02-18T00:08:45;98397.00;;;6.85;94.78
48364;BME280;34170;54.364;18.582;2023-02-18T00:11:14;98380.75;;;6.95;94.52
48364;BME280;34170;54.364;18.582;2023-02-18T00:13:42;98424.53;;;6.94;94.96
48364;BME280;34170;54.364;18.582;2023-02-18T00:16:11;98427.56;;;6.99;94.13
48364;BME280;34170;54.364;18.582;2023-02-18T00:18:39;98358.91;;;6.92;95.56
48364;BME280;34170;54.364;18.582;2023-02-18T00:21:07;98403.13;;;7.02;93.81
48364;BME280;34170;54.364;18.582;2023-02-18T00:23:34;98420.53;;;6.74;97.50
48364;BME280;34170;54.364;18.582;2023-02-18T00:26:08;98436.03;;;6.70;99.09
48364;BME280;34170;54.364;18.582;2023-02-18T00:28:39;98415.19;;;6.82;100.00
48364;BME280;34170;54.364;18.582;2023-02-18T00:31:08;98391.81;;;6.84;95.72
48364;BME280;34170;54.364;18.582;2023-02-18T00:33:36;98376.09;;;6.81;93.85
48364;BME280;34170;54.364;18.582;2023-02-18T00:36:06;98407.66;;;7.02;90.80
48364;BME280;34170;54.364;18.582;2023-02-18T00:38:35;98446.06;;;7.01;89.99
48364;BME280;34170;54.364;18.582;2023-02-18T00:41:02;98374.44;;;6.88;89.87
48364;BME280;34170;54.364;18.582;2023-02-18T00:43:30;98433.38;;;6.95;89.46
48364;BME280;34170;54.364;18.582;2023-02-18T00:45:57;98413.66;;;7.12;86.52
48364;BME280;34170;54.364;18.582;2023-02-18T00:48:25;98439.06;;;7.24;88.53
48364;BME280;34170;54.364;18.582;2023-02-18T00:50:52;98474.63;;;7.17;87.63
48364;BME280;34170;54.364;18.582;2023-02-18T00:53:22;98473.00;;;6.99;90.05
48364;BME280;34170;54.364;18.582;2023-02-18T00:55:49;98463.94;;;7.00;90.92
48364;BME280;34170;54.364;18.582;2023-02-18T00:58:17;98429.72;;;6.87;89.09
48364;BME280;34170;54.364;18.582;2023-02-18T01:00:45;98475.81;;;6.98;88.74
48364;BME280;34170;54.364;18.582;2023-02-18T01:03:12;98458.94;;;6.97;89.97
48364;BME280;34170;54.364;18.582;2023-02-18T01:05:41;98480.31;;;6.97;91.54
48364;BME280;34170;54.364;18.582;2023-02-18T01:08:09;98504.50;;;6.79;92.58
48364;BME280;34170;54.364;18.582;2023-02-18T01:10:41;98485.31;;;6.76;91.68
48364;BME280;34170;54.364;18.582;2023-02-18T01:13:09;98493.19;;;7.02;91.74
48364;BME280;34170;54.364;18.582;2023-02-18T01:15:39;98481.31;;;6.88;91.90
48364;BME280;34170;54.364;18.582;2023-02-18T01:18:07;98496.69;;;7.02;91.47
48364;BME280;34170;54.364;18.582;2023-02-18T01:20:36;98487.66;;;6.95;89.17
48364;BME280;34170;54.364;18.582;2023-02-18T01:23:04;98502.69;;;6.88;89.79
48364;BME280;34170;54.364;18.582;2023-02-18T01:25:32;98480.97;;;6.91;89.28
48364;BME280;34170;54.364;18.582;2023-02-18T01:28:00;98520.06;;;7.00;87.25
48364;BME280;34170;54.364;18.582;2023-02-18T01:30:28;98518.06;;;7.02;87.60
48364;BME280;34170;54.364;18.582;2023-02-18T01:32:56;98519.91;;;7.18;86.54
48364;BME280;34170;54.364;18.582;2023-02-18T01:35:24;98487.84;;;7.10;86.27
48364;BME280;34170;54.364;18.582;2023-02-18T01:37:53;98505.06;;;6.99;83.98
48364;BME280;34170;54.364;18.582;2023-02-18T01:40:23;98508.75;;;7.06;83.04
48364;BME280;34170;54.364;18.582;2023-02-18T01:42:52;98510.41;;;6.99;81.81
48364;BME280;34170;54.364;18.582;2023-02-18T01:50:41;98485.34;;;7.25;77.95
48364;BME280;34170;54.364;18.582;2023-02-18T01:53:11;98491.34;;;7.02;78.62
48364;BME280;34170;54.364;18.582;2023-02-18T01:55:41;98515.91;;;7.22;78.55
48364;BME280;34170;54.364;18.582;2023-02-18T01:58:10;98507.72;;;7.16;78.62
48364;BME280;34170;54.364;18.582;2023-02-18T02:00:39;98527.28;;;7.24;77.73
48364;BME280;34170;54.364;18.582;2023-02-18T02:03:07;98490.34;;;7.12;78.72
48364;BME280;34170;54.364;18.582;2023-02-18T02:05:34;98523.75;;;7.24;78.32
48364;BME280;34170;54.364;18.582;2023-02-18T02:08:02;98528.28;;;7.23;78.72
48364;BME280;34170;54.364;18.582;2023-02-18T02:13:26;98523.28;;;7.12;78.67
48364;BME280;34170;54.364;18.582;2023-02-18T02:16:10;98511.91;;;7.10;78.97
48364;BME280;34170;54.364;18.582;2023-02-18T02:19:17;98535.78;;;7.12;77.54
48364;BME280;34170;54.364;18.582;2023-02-18T02:25:18;98549.16;;;7.03;77.64
48364;BME280;34170;54.364;18.582;2023-02-18T02:30:51;98531.59;;;6.93;76.97
48364;BME280;34170;54.364;18.582;2023-02-18T02:33:55;98536.28;;;6.91;77.84
48364;BME280;34170;54.364;18.582;2023-02-18T02:39:19;98501.03;;;7.20;75.17
48364;BME280;34170;54.364;18.582;2023-02-18T02:42:06;98528.59;;;7.20;75.52
48364;BME280;34170;54.364;18.582;2023-02-18T02:44:52;98524.41;;;6.93;76.83
48364;BME280;34170;54.364;18.582;2023-02-18T02:47:51;98525.44;;;7.09;75.53
48364;BME280;34170;54.364;18.582;2023-02-18T02:50:27;98551.16;;;7.18;76.22
48364;BME280;34170;54.364;18.582;2023-02-18T02:53:01;98530.63;;;7.10;75.96
48364;BME280;34170;54.364;18.582;2023-02-18T02:55:33;98550.81;;;7.04;75.80
48364;BME280;34170;54.364;18.582;2023-02-18T02:58:01;98550.63;;;6.90;75.77
48364;BME280;34170;54.364;18.582;2023-02-18T03:11:53;98432.56;;;6.86;74.58
48364;BME280;34170;54.364;18.582;2023-02-18T03:14:44;98548.31;;;7.11;73.82
48364;BME280;34170;54.364;18.582;2023-02-18T03:17:35;98558.03;;;7.12;73.48
48364;BME280;34170;54.364;18.582;2023-02-18T03:20:16;98564.31;;;6.86;74.06
48364;BME280;34170;54.364;18.582;2023-02-18T03:22:47;98570.16;;;6.82;74.63
48364;BME280;34170;54.364;18.582;2023-02-18T03:25:17;98582.22;;;7.02;74.06
48364;BME280;34170;54.364;18.582;2023-02-18T03:27:57;98575.72;;;7.13;73.68
48364;BME280;34170;54.364;18.582;2023-02-18T03:30:32;98522.06;;;6.98;73.35
48364;BME280;34170;54.364;18.582;2023-02-18T03:33:04;98559.16;;;6.85;73.44
48364;BME280;34170;54.364;18.582;2023-02-18T03:35:35;98545.94;;;6.92;73.65
48364;BME280;34170;54.364;18.582;2023-02-18T03:38:37;98559.50;;;6.98;73.29
48364;BME280;34170;54.364;18.582;2023-02-18T03:41:06;98566.31;;;6.84;74.62
48364;BME280;34170;54.364;18.582;2023-02-18T03:43:35;98571.97;;;6.81;75.31
48364;BME280;34170;54.364;18.582;2023-02-18T03:46:02;98605.66;;;6.66;75.39
48364;BME280;34170;54.364;18.582;2023-02-18T03:48:30;98555.75;;;6.66;75.83
48364;BME280;34170;54.364;18.582;2023-02-18T03:50:57;98551.22;;;6.59;75.70
48364;BME280;34170;54.364;18.582;2023-02-18T03:53:25;98590.00;;;6.71;74.41
48364;BME280;34170;54.364;18.582;2023-02-18T03:55:52;98605.00;;;6.72;75.39
48364;BME280;34170;54.364;18.582;2023-02-18T03:58:20;98612.19;;;6.72;75.64
48364;BME280;34170;54.364;18.582;2023-02-18T04:00:47;98623.72;;;6.72;74.54
48364;BME280;34170;54.364;18.582;2023-02-18T04:03:15;98582.84;;;6.80;74.18
48364;BME280;34170;54.364;18.582;2023-02-18T04:05:42;98619.75;;;6.76;74.06
48364;BME280;34170;54.364;18.582;2023-02-18T04:08:09;98596.88;;;6.82;72.98
48364;BME280;34170;54.364;18.582;2023-02-18T04:10:37;98563.34;;;7.04;71.86
48364;BME280;34170;54.364;18.582;2023-02-18T04:13:04;98635.97;;;6.91;72.78
48364;BME280;34170;54.364;18.582;2023-02-18T04:15:31;98621.38;;;6.69;74.01
48364;BME280;34170;54.364;18.582;2023-02-18T04:18:00;98643.97;;;6.83;72.99
48364;BME280;34170;54.364;18.582;2023-02-18T04:20:28;98631.00;;;7.04;72.57
48364;BME280;34170;54.364;18.582;2023-02-18T04:22:56;98639.53;;;7.08;72.88
48364;BME280;34170;54.364;18.582;2023-02-18T04:25:23;98663.94;;;6.71;73.42
48364;BME280;34170;54.364;18.582;2023-02-18T04:27:50;98659.31;;;6.81;73.17
48364;BME280;34170;54.364;18.582;2023-02-18T04:30:18;98650.84;;;6.94;73.13
48364;BME280;34170;54.364;18.582;2023-02-18T04:32:46;98663.31;;;6.77;73.33
48364;BME280;34170;54.364;18.582;2023-02-18T04:35:13;98645.66;;;6.84;73.04
48364;BME280;34170;54.364;18.582;2023-02-18T04:37:41;98640.78;;;6.79;73.42
48364;BME280;34170;54.364;18.582;2023-02-18T04:40:09;98643.91;;;6.66;74.53
48364;BME280;34170;54.364;18.582;2023-02-18T04:42:37;98666.88;;;6.85;73.95
48364;BME280;34170;54.364;18.582;2023-02-18T04:45:04;98649.31;;;6.48;74.84
48364;BME280;34170;54.364;18.582;2023-02-18T04:47:32;98649.41;;;6.30;75.94
48364;BME280;34170;54.364;18.582;2023-02-18T04:50:00;98663.47;;;6.75;74.57
48364;BME280;34170;54.364;18.582;2023-02-18T04:52:27;98682.47;;;6.64;74.48
48364;BME280;34170;54.364;18.582;2023-02-18T04:54:54;98693.59;;;6.51;74.21
48364;BME280;34170;54.364;18.582;2023-02-18T04:57:22;98691.00;;;6.67;74.40
48364;BME280;34170;54.364;18.582;2023-02-18T04:59:49;98676.78;;;6.67;74.31
48364;BME280;34170;54.364;18.582;2023-02-18T05:02:17;98694.09;;;6.55;74.71
48364;BME280;34170;54.364;18.582;2023-02-18T05:04:44;98687.75;;;6.90;73.00
48364;BME280;34170;54.364;18.582;2023-02-18T05:07:12;98656.28;;;6.67;74.24
48364;BME280;34170;54.364;18.582;2023-02-18T05:09:39;98689.44;;;6.57;74.62
48364;BME280;34170;54.364;18.582;2023-02-18T05:12:06;98683.59;;;6.61;74.33
48364;BME280;34170;54.364;18.582;2023-02-18T05:14:34;98691.59;;;6.53;74.42
48364;BME280;34170;54.364;18.582;2023-02-18T05:17:01;98705.97;;;6.60;73.69
48364;BME280;34170;54.364;18.582;2023-02-18T05:19:29;98699.75;;;6.52;74.21
48364;BME280;34170;54.364;18.582;2023-02-18T05:21:56;98685.03;;;6.21;75.57
48364;BME280;34170;54.364;18.582;2023-02-18T05:24:24;98718.50;;;6.34;75.40
48364;BME280;34170;54.364;18.582;2023-02-18T05:26:51;98710.72;;;6.22;76.60
48364;BME280;34170;54.364;18.582;2023-02-18T05:29:19;98696.25;;;6.25;76.26
48364;BME280;34170;54.364;18.582;2023-02-18T05:31:46;98727.81;;;6.56;75.29
48364;BME280;34170;54.364;18.582;2023-02-18T05:34:13;98741.47;;;6.53;75.17
48364;BME280;34170;54.364;18.582;2023-02-18T05:36:41;98704.41;;;6.23;76.34
48364;BME280;34170;54.364;18.582;2023-02-18T05:39:08;98731.81;;;6.07;76.95
48364;BME280;34170;54.364;18.582;2023-02-18T05:41:36;98740.97;;;5.87;78.71
48364;BME280;34170;54.364;18.582;2023-02-18T05:44:03;98734.72;;;5.78;78.76
48364;BME280;34170;54.364;18.582;2023-02-18T05:46:49;98745.00;;;5.91;78.73
48364;BME280;34170;54.364;18.582;2023-02-18T05:49:16;98734.41;;;5.81;79.16
48364;BME280;34170;54.364;18.582;2023-02-18T05:51:44;98743.06;;;5.47;80.74
48364;BME280;34170;54.364;18.582;2023-02-18T05:54:11;98730.09;;;5.52;80.58
48364;BME280;34170;54.364;18.582;2023-02-18T05:56:39;98751.41;;;5.80;79.82
48364;BME280;34170;54.364;18.582;2023-02-18T05:59:06;98735.16;;;5.56;80.00
48364;BME280;34170;54.364;18.582;2023-02-18T06:01:33;98750.59;;;5.52;80.95
48364;BME280;34170;54.364;18.582;2023-02-18T06:04:01;98719.69;;;5.59;80.34
48364;BME280;34170;54.364;18.582;2023-02-18T06:06:28;98750.75;;;5.50;80.36
48364;BME280;34170;54.364;18.582;2023-02-18T06:08:56;98770.56;;;5.48;81.40
48364;BME280;34170;54.364;18.582;2023-02-18T06:11:23;98743.53;;;5.61;80.59
48364;BME280;34170;54.364;18.582;2023-02-18T06:13:51;98784.06;;;5.64;80.59
48364;BME280;34170;54.364;18.582;2023-02-18T06:16:18;98778.50;;;5.58;80.64
48364;BME280;34170;54.364;18.582;2023-02-18T06:18:45;98788.53;;;5.46;80.93
48364;BME280;34170;54.364;18.582;2023-02-18T06:21:13;98791.31;;;6.00;79.53
48364;BME280;34170;54.364;18.582;2023-02-18T06:23:41;98800.88;;;5.92;79.34
48364;BME280;34170;54.364;18.582;2023-02-18T06:26:08;98790.03;;;5.76;79.70
48364;BME280;34170;54.364;18.582;2023-02-18T06:28:36;98818.84;;;5.72;80.49
48364;BME280;34170;54.364;18.582;2023-02-18T06:31:04;98787.00;;;5.89;80.20
48364;BME280;34170;54.364;18.582;2023-02-18T06:33:31;98832.16;;;6.18;78.33
48364;BME280;34170;54.364;18.582;2023-02-18T06:36:04;98825.59;;;6.13;78.35
48364;BME280;34170;54.364;18.582;2023-02-18T06:38:43;98833.19;;;6.61;76.16
48364;BME280;34170;54.364;18.582;2023-02-18T06:41:12;98831.06;;;6.47;75.90
48364;BME280;34170;54.364;18.582;2023-02-18T06:43:40;98818.59;;;6.74;75.04
48364;BME280;34170;54.364;18.582;2023-02-18T06:46:07;98848.53;;;7.03;72.94
48364;BME280;34170;54.364;18.582;2023-02-18T06:48:35;98836.59;;;7.67;69.75
48364;BME280;34170;54.364;18.582;2023-02-18T06:51:04;98869.63;;;7.92;67.88
48364;BME280;34170;54.364;18.582;2023-02-18T06:53:32;98848.13;;;8.18;67.13
48364;BME280;34170;54.364;18.582;2023-02-18T06:55:59;98831.22;;;8.83;62.80
48364;BME280;34170;54.364;18.582;2023-02-18T06:58:26;98836.91;;;8.96;62.18
48364;BME280;34170;54.364;18.582;2023-02-18T07:00:54;98825.28;;;9.21;61.95
48364;BME280;34170;54.364;18.582;2023-02-18T07:03:21;98858.03;;;8.83;62.20
48364;BME280;34170;54.364;18.582;2023-02-18T07:05:49;98881.69;;;10.23;58.36
48364;BME280;34170;54.364;18.582;2023-02-18T07:08:16;98868.91;;;10.33;56.88
48364;BME280;34170;54.364;18.582;2023-02-18T07:10:44;98865.16;;;9.80;57.56
48364;BME280;34170;54.364;18.582;2023-02-18T07:13:11;98844.38;;;10.36;55.17
48364;BME280;34170;54.364;18.582;2023-02-18T07:15:39;98863.41;;;10.49;54.29
48364;BME280;34170;54.364;18.582;2023-02-18T07:18:06;98886.81;;;11.25;52.76
48364;BME280;34170;54.364;18.582;2023-02-18T07:20:34;98884.47;;;11.81;49.51
48364;BME280;34170;54.364;18.582;2023-02-18T07:23:01;98872.66;;;10.93;52.33
48364;BME280;34170;54.364;18.582;2023-02-18T07:25:29;98875.94;;;11.33;50.90
48364;BME280;34170;54.364;18.582;2023-02-18T07:27:56;98886.28;;;10.92;51.35
48364;BME280;34170;54.364;18.582;2023-02-18T07:30:23;98882.91;;;12.02;47.97
48364;BME280;34170;54.364;18.582;2023-02-18T07:32:51;98896.75;;;11.84;48.49
48364;BME280;34170;54.364;18.582;2023-02-18T07:35:18;98895.38;;;12.39;46.64
48364;BME280;34170;54.364;18.582;2023-02-18T07:37:48;98887.94;;;10.93;50.37
48364;BME280;34170;54.364;18.582;2023-02-18T07:40:18;98893.03;;;11.85;48.29
48364;BME280;34170;54.364;18.582;2023-02-18T07:42:46;98905.53;;;12.23;47.16
48364;BME280;34170;54.364;18.582;2023-02-18T07:45:14;98882.00;;;12.31;45.47
48364;BME280;34170;54.364;18.582;2023-02-18T07:47:42;98909.84;;;12.38;46.24
48364;BME280;34170;54.364;18.582;2023-02-18T07:50:09;98900.94;;;11.72;48.23
48364;BME280;34170;54.364;18.582;2023-02-18T07:52:37;98892.66;;;12.03;47.29
48364;BME280;34170;54.364;18.582;2023-02-18T07:55:05;98877.16;;;11.31;48.11
48364;BME280;34170;54.364;18.582;2023-02-18T07:57:32;98892.09;;;11.33;49.16
48364;BME280;34170;54.364;18.582;2023-02-18T08:00:20;98907.25;;;11.94;46.21
48364;BME280;34170;54.364;18.582;2023-02-18T08:02:47;98892.38;;;12.13;46.06
48364;BME280;34170;54.364;18.582;2023-02-18T08:05:15;98899.81;;;11.36;48.32
48364;BME280;34170;54.364;18.582;2023-02-18T08:07:42;98903.88;;;11.62;47.83
48364;BME280;34170;54.364;18.582;2023-02-18T08:10:10;98901.50;;;12.33;45.58
48364;BME280;34170;54.364;18.582;2023-02-18T08:12:37;98884.78;;;11.42;47.35
48364;BME280;34170;54.364;18.582;2023-02-18T08:15:05;98887.09;;;11.45;48.10
48364;BME280;34170;54.364;18.582;2023-02-18T08:17:32;98931.75;;;12.29;45.76
48364;BME280;34170;54.364;18.582;2023-02-18T08:20:00;98909.72;;;13.11;44.21
48364;BME280;34170;54.364;18.582;2023-02-18T08:22:27;98913.38;;;12.02;46.00
48364;BME280;34170;54.364;18.582;2023-02-18T08:24:55;98910.56;;;13.12;44.01
48364;BME280;34170;54.364;18.582;2023-02-18T08:27:22;98918.47;;;11.82;46.49
48364;BME280;34170;54.364;18.582;2023-02-18T08:29:50;98943.16;;;12.16;45.55
48364;BME280;34170;54.364;18.582;2023-02-18T08:32:17;98935.44;;;11.23;47.08
48364;BME280;34170;54.364;18.582;2023-02-18T08:34:45;98947.06;;;12.65;45.07
48364;BME280;34170;54.364;18.582;2023-02-18T08:37:12;98954.13;;;12.29;45.33
48364;BME280;34170;54.364;18.582;2023-02-18T08:39:40;98935.94;;;11.72;46.89
48364;BME280;34170;54.364;18.582;2023-02-18T08:42:07;98943.00;;;12.02;45.99
48364;BME280;34170;54.364;18.582;2023-02-18T08:44:35;98949.03;;;10.84;48.68
48364;BME280;34170;54.364;18.582;2023-02-18T08:47:02;98931.16;;;10.91;48.58
48364;BME280;34170;54.364;18.582;2023-02-18T08:49:52;98957.97;;;9.74;52.14
48364;BME280;34170;54.364;18.582;2023-02-18T08:52:20;98959.72;;;9.42;54.08
48364;BME280;34170;54.364;18.582;2023-02-18T08:54:47;98965.84;;;9.76;53.16
48364;BME280;34170;54.364;18.582;2023-02-18T08:57:15;98970.88;;;9.79;53.25
48364;BME280;34170;54.364;18.582;2023-02-18T08:59:42;98969.53;;;9.74;54.24
48364;BME280;34170;54.364;18.582;2023-02-18T09:02:12;98980.53;;;10.04;52.37
48364;BME280;34170;54.364;18.582;2023-02-18T09:04:40;98967.56;;;9.60;53.83
48364;BME280;34170;54.364;18.582;2023-02-18T09:07:08;98962.59;;;9.97;53.19
48364;BME280;34170;54.364;18.582;2023-02-18T09:09:35;98972.47;;;10.04;52.25
48364;BME280;34170;54.364;18.582;2023-02-18T09:12:02;98973.19;;;9.98;52.84
48364;BME280;34170;54.364;18.582;2023-02-18T09:14:30;98996.63;;;10.04;52.52
48364;BME280;34170;54.364;18.582;2023-02-18T09:16:58;98993.22;;;10.58;51.44
48364;BME280;34170;54.364;18.582;2023-02-18T09:19:26;98968.03;;;11.29;49.12
48364;BME280;34170;54.364;18.582;2023-02-18T09:21:53;99003.53;;;11.62;48.12
48364;BME280;34170;54.364;18.582;2023-02-18T09:24:21;99000.66;;;10.79;50.42
48364;BME280;34170;54.364;18.582;2023-02-18T09:26:48;99011.25;;;10.02;52.88
48364;BME280;34170;54.364;18.582;2023-02-18T09:29:16;99012.66;;;10.37;52.01
48364;BME280;34170;54.364;18.582;2023-02-18T09:31:45;98990.13;;;10.46;51.60
48364;BME280;34170;54.364;18.582;2023-02-18T09:34:13;99012.50;;;10.93;50.20
48364;BME280;34170;54.364;18.582;2023-02-18T09:36:40;99018.47;;;11.26;49.30
48364;BME280;34170;54.364;18.582;2023-02-18T09:39:08;99002.88;;;11.75;47.30
48364;BME280;34170;54.364;18.582;2023-02-18T09:41:45;99011.41;;;11.49;47.26
48364;BME280;34170;54.364;18.582;2023-02-18T09:44:37;99003.59;;;11.92;46.18
48364;BME280;34170;54.364;18.582;2023-02-18T09:49:57;99009.66;;;11.18;46.76
48364;BME280;34170;54.364;18.582;2023-02-18T09:52:33;99027.44;;;13.12;42.90
48364;BME280;34170;54.364;18.582;2023-02-18T09:55:19;99020.38;;;12.90;43.01
48364;BME280;34170;54.364;18.582;2023-02-18T09:57:53;99025.25;;;13.23;41.93
48364;BME280;34170;54.364;18.582;2023-02-18T10:00:42;99030.84;;;10.19;48.57
48364;BME280;34170;54.364;18.582;2023-02-18T10:03:19;99033.34;;;9.48;51.76
48364;BME280;34170;54.364;18.582;2023-02-18T10:06:06;99024.25;;;9.65;51.86
48364;BME280;34170;54.364;18.582;2023-02-18T10:08:54;99015.16;;;9.74;52.10
48364;BME280;34170;54.364;18.582;2023-02-18T10:11:39;99031.88;;;10.01;51.71
48364;BME280;34170;54.364;18.582;2023-02-18T10:14:13;99012.53;;;9.42;52.84
48364;BME280;34170;54.364;18.582;2023-02-18T10:16:45;99026.72;;;10.79;48.68
48364;BME280;34170;54.364;18.582;2023-02-18T10:19:25;99011.41;;;10.79;47.74
48364;BME280;34170;54.364;18.582;2023-02-18T10:21:55;99025.47;;;10.90;48.11
48364;BME280;34170;54.364;18.582;2023-02-18T10:24:32;99040.25;;;11.17;47.90
48364;BME280;34170;54.364;18.582;2023-02-18T10:27:04;99023.38;;;12.29;45.42
48364;BME280;34170;54.364;18.582;2023-02-18T10:29:32;99036.47;;;11.03;47.88
48364;BME280;34170;54.364;18.582;2023-02-18T10:34:48;99008.56;;;11.80;44.63
48364;BME280;34170;54.364;18.582;2023-02-18T10:43:24;99028.94;;;12.78;43.35
48364;BME280;34170;54.364;18.582;2023-02-18T10:46:16;99013.97;;;13.34;41.94
48364;BME280;34170;54.364;18.582;2023-02-18T10:51:47;99020.75;;;10.92;46.70
48364;BME280;34170;54.364;18.582;2023-02-18T10:54:16;99013.56;;;10.61;48.71
48364;BME280;34170;54.364;18.582;2023-02-18T10:56:49;99016.34;;;10.36;48.67
48364;BME280;34170;54.364;18.582;2023-02-18T10:59:25;99027.97;;;10.28;49.67
48364;BME280;34170;54.364;18.582;2023-02-18T11:01:59;99014.91;;;9.20;54.37
48364;BME280;34170;54.364;18.582;2023-02-18T11:04:37;99014.88;;;9.69;53.69
48364;BME280;34170;54.364;18.582;2023-02-18T11:07:12;99004.78;;;10.67;50.34
48364;BME280;34170;54.364;18.582;2023-02-18T11:09:53;99039.50;;;11.46;48.62
48364;BME280;34170;54.364;18.582;2023-02-18T11:12:24;99019.47;;;11.49;46.92
48364;BME280;34170;54.364;18.582;2023-02-18T11:17:34;99041.09;;;10.63;48.67
48364;BME280;34170;54.364;18.582;2023-02-18T11:22:43;98990.56;;;9.38;52.10
48364;BME280;34170;54.364;18.582;2023-02-18T11:25:31;99032.97;;;9.84;51.59
48364;BME280;34170;54.364;18.582;2023-02-18T11:28:27;99030.41;;;9.99;50.67
48364;BME280;34170;54.364;18.582;2023-02-18T11:30:58;99023.25;;;9.01;54.59
48364;BME280;34170;54.364;18.582;2023-02-18T11:33:57;99016.91;;;9.02;55.49
48364;BME280;34170;54.364;18.582;2023-02-18T11:36:33;98998.94;;;8.69;57.09
48364;BME280;34170;54.364;18.582;2023-02-18T11:39:04;99027.50;;;8.44;57.52
48364;BME280;34170;54.364;18.582;2023-02-18T11:41:39;99019.53;;;8.61;58.02
48364;BME280;34170;54.364;18.582;2023-02-18T11:44:28;99029.72;;;8.57;58.18
48364;BME280;34170;54.364;18.582;2023-02-18T11:47:01;99013.00;;;8.71;57.54
48364;BME280;34170;54.364;18.582;2023-02-18T11:49:31;99009.97;;;8.74;55.82
48364;BME280;34170;54.364;18.582;2023-02-18T11:54:32;99025.34;;;8.56;57.22
48364;BME280;34170;54.364;18.582;2023-02-18T11:57:05;99016.66;;;8.54;57.56
48364;BME280;34170;54.364;18.582;2023-02-18T11:59:35;99025.75;;;8.94;56.61
48364;BME280;34170;54.364;18.582;2023-02-18T12:04:51;99027.53;;;8.52;59.15
48364;BME280;34170;54.364;18.582;2023-02-18T12:09:49;99034.97;;;8.83;58.61
48364;BME280;34170;54.364;18.582;2023-02-18T12:12:31;99034.28;;;8.73;58.63
48364;BME280;34170;54.364;18.582;2023-02-18T12:14:59;99035.91;;;8.57;58.95
48364;BME280;34170;54.364;18.582;2023-02-18T12:20:44;99027.28;;;9.05;59.74
48364;BME280;34170;54.364;18.582;2023-02-18T12:26:29;99031.63;;;8.97;58.94
48364;BME280;34170;54.364;18.582;2023-02-18T13:03:07;99028.28;;;8.87;60.68
48364;BME280;34170;54.364;18.582;2023-02-18T13:05:47;99024.22;;;8.58;62.22
48364;BME280;34170;54.364;18.582;2023-02-18T13:14:01;99037.69;;;9.08;60.41
48364;BME280;34170;54.364;18.582;2023-02-18T13:16:30;99028.81;;;9.07;58.66
48364;BME280;34170;54.364;18.582;2023-02-18T13:21:43;99021.53;;;8.58;60.03
48364;BME280;34170;54.364;18.582;2023-02-18T13:24:20;99027.56;;;8.69;59.63
48364;BME280;34170;54.364;18.582;2023-02-18T13:26:52;99028.41;;;8.27;62.13
48364;BME280;34170;54.364;18.582;2023-02-18T13:29:31;99019.72;;;8.25;60.63
48364;BME280;34170;54.364;18.582;2023-02-18T13:32:21;99029.19;;;8.45;60.41
48364;BME280;34170;54.364;18.582;2023-02-18T13:35:44;99044.63;;;8.59;61.06
48364;BME280;34170;54.364;18.582;2023-02-18T13:40:20;99030.44;;;8.33;60.53
48364;BME280;34170;54.364;18.582;2023-02-18T13:42:52;99025.50;;;8.12;61.10
48364;BME280;34170;54.364;18.582;2023-02-18T13:47:53;99021.44;;;7.73;62.72
48364;BME280;34170;54.364;18.582;2023-02-18T13:52:51;99032.63;;;7.95;61.92
48364;BME280;34170;54.364;18.582;2023-02-18T13:55:38;99035.94;;;7.62;63.92
48364;BME280;34170;54.364;18.582;2023-02-18T13:58:18;99026.97;;;7.28;65.12
48364;BME280;34170;54.364;18.582;2023-02-18T14:00:53;99007.28;;;7.55;63.58
48364;BME280;34170;54.364;18.582;2023-02-18T14:03:32;99034.34;;;7.52;64.37
48364;BME280;34170;54.364;18.582;2023-02-18T14:06:16;99007.41;;;7.79;63.22
48364;BME280;34170;54.364;18.582;2023-02-18T14:08:45;99033.72;;;7.84;62.50
48364;BME280;34170;54.364;18.582;2023-02-18T14:16:10;99029.41;;;7.65;64.83
48364;BME280;34170;54.364;18.582;2023-02-18T14:26:30;99028.69;;;7.11;70.11
48364;BME280;34170;54.364;18.582;2023-02-18T14:29:13;99017.13;;;7.28;69.17
48364;BME280;34170;54.364;18.582;2023-02-18T14:31:48;99008.50;;;7.16;69.39
48364;BME280;34170;54.364;18.582;2023-02-18T14:45:10;99000.47;;;7.16;71.18
48364;BME280;34170;54.364;18.582;2023-02-18T14:50:32;98990.06;;;6.87;71.79
48364;BME280;34170;54.364;18.582;2023-02-18T14:53:07;99012.16;;;6.79;72.71
48364;BME280;34170;54.364;18.582;2023-02-18T14:55:43;99017.38;;;6.81;72.81
48364;BME280;34170;54.364;18.582;2023-02-18T14:58:35;99032.81;;;6.87;73.23
48364;BME280;34170;54.364;18.582;2023-02-18T15:03:49;99030.81;;;6.89;72.98
48364;BME280;34170;54.364;18.582;2023-02-18T15:06:36;99031.25;;;7.02;72.31
48364;BME280;34170;54.364;18.582;2023-02-18T15:09:18;98998.81;;;6.97;71.85
48364;BME280;34170;54.364;18.582;2023-02-18T15:11:49;99013.09;;;6.88;73.42
48364;BME280;34170;54.364;18.582;2023-02-18T15:14:28;99029.06;;;6.98;73.30
48364;BME280;34170;54.364;18.582;2023-02-18T15:16:57;99009.56;;;6.52;75.48
48364;BME280;34170;54.364;18.582;2023-02-18T15:19:28;99026.69;;;6.77;75.55
48364;BME280;34170;54.364;18.582;2023-02-18T15:21:56;99025.69;;;6.78;75.13
48364;BME280;34170;54.364;18.582;2023-02-18T15:24:37;99035.13;;;6.54;76.08
48364;BME280;34170;54.364;18.582;2023-02-18T15:27:13;99025.44;;;6.25;77.40
48364;BME280;34170;54.364;18.582;2023-02-18T15:29:41;99031.75;;;6.52;76.61
48364;BME280;34170;54.364;18.582;2023-02-18T15:32:17;99043.47;;;6.69;76.21
48364;BME280;34170;54.364;18.582;2023-02-18T15:34:50;99027.97;;;6.55;76.22
48364;BME280;34170;54.364;18.582;2023-02-18T15:37:18;99035.28;;;6.53;76.70
48364;BME280;34170;54.364;18.582;2023-02-18T15:39:46;99033.63;;;6.70;76.10
48364;BME280;34170;54.364;18.582;2023-02-18T15:42:24;99030.81;;;6.71;76.00